sensor_id;sensor_type;location;lat;lon;timestamp;pressure;altitude;pressure_sealevel;temperature;humidity
71149;BME280;59072;42.144;25.200;2023-05-03T00:00:54;100667.19;;;11.13;56.57
71149;BME280;59072;42.144;25.200;2023-05-03T00:03:20;100664.50;;;11.19;56.22
71149;BME280;59072;42.144;25.200;2023-05-03T00:05:48;100676.22;;;11.18;56.03
71149;BME280;59072;42.144;25.200;2023-05-03T00:08:15;100672.31;;;11.27;56.28
71149;BME280;59072;42.144;25.200;2023-05-03T00:10:41;100674.56;;;11.17;56.97
71149;BME280;59072;42.144;25.200;2023-05-03T00:13:06;100669.28;;;11.04;57.33
71149;BME280;59072;42.144;25.200;2023-05-03T00:15:32;100669.69;;;10.81;58.05
71149;BME280;59072;42.144;25.200;2023-05-03T00:17:57;100682.41;;;10.99;57.60
71149;BME280;59072;42.144;25.200;2023-05-03T00:20:23;100683.41;;;11.11;57.23
71149;BME280;59072;42.144;25.200;2023-05-03T00:22:49;100683.84;;;11.01;58.35
71149;BME280;59072;42.144;25.200;2023-05-03T00:25:15;100680.31;;;11.27;57.47
71149;BME280;59072;42.144;25.200;2023-05-03T00:27:40;100675.81;;;11.21;58.38
71149;BME280;59072;42.144;25.200;2023-05-03T00:30:06;100684.47;;;10.77;59.74
71149;BME280;59072;42.144;25.200;2023-05-03T00:32:32;100681.38;;;10.73;60.33
71149;BME280;59072;42.144;25.200;2023-05-03T00:34:57;100689.78;;;10.57;61.23
71149;BME280;59072;42.144;25.200;2023-05-03T00:37:23;100678.50;;;10.68;60.49
71149;BME280;59072;42.144;25.200;2023-05-03T00:39:49;100674.63;;;10.97;59.14
71149;BME280;59072;42.144;25.200;2023-05-03T00:42:14;100673.81;;;10.83;58.79
71149;BME280;59072;42.144;25.200;2023-05-03T00:44:40;100661.88;;;10.93;58.08
71149;BME280;59072;42.144;25.200;2023-05-03T00:47:05;100667.22;;;10.93;57.79
71149;BME280;59072;42.144;25.200;2023-05-03T00:49:32;100660.25;;;10.85;58.01
71149;BME280;59072;42.144;25.200;2023-05-03T00:51:58;100669.69;;;10.88;58.17
71149;BME280;59072;42.144;25.200;2023-05-03T00:54:26;100653.47;;;10.96;57.68
71149;BME280;59072;42.144;25.200;2023-05-03T00:56:51;100665.19;;;11.01;57.57
71149;BME280;59072;42.144;25.200;2023-05-03T00:59:17;100660.22;;;11.05;57.62
71149;BME280;59072;42.144;25.200;2023-05-03T01:01:44;100658.19;;;11.00;58.04
71149;BME280;59072;42.144;25.200;2023-05-03T01:04:12;100648.72;;;11.11;58.00
71149;BME280;59072;42.144;25.200;2023-05-03T01:09:11;100631.91;;;10.91;59.00
71149;BME280;59072;42.144;25.200;2023-05-03T01:12:02;100637.25;;;10.91;59.58
71149;BME280;59072;42.144;25.200;2023-05-03T01:15:07;100654.28;;;11.03;59.18
71149;BME280;59072;42.144;25.200;2023-05-03T01:17:54;100638.31;;;10.83;59.27
71149;BME280;59072;42.144;25.200;2023-05-03T01:20:22;100654.50;;;10.88;59.48
71149;BME280;59072;42.144;25.200;2023-05-03T01:25:23;100641.72;;;11.23;58.81
71149;BME280;59072;42.144;25.200;2023-05-03T01:27:49;100644.63;;;11.02;58.82
71149;BME280;59072;42.144;25.200;2023-05-03T01:30:15;100651.00;;;11.08;58.71
71149;BME280;59072;42.144;25.200;2023-05-03T01:35:49;100654.28;;;11.10;59.35
71149;BME280;59072;42.144;25.200;2023-05-03T01:38:16;100644.03;;;11.00;59.45
71149;BME280;59072;42.144;25.200;2023-05-03T01:40:46;100619.16;;;11.06;59.51
71149;BME280;59072;42.144;25.200;2023-05-03T01:43:15;100615.69;;;11.05;59.26
71149;BME280;59072;42.144;25.200;2023-05-03T01:45:41;100622.44;;;11.15;59.63
71149;BME280;59072;42.144;25.200;2023-05-03T01:48:09;100635.97;;;11.26;59.58
71149;BME280;59072;42.144;25.200;2023-05-03T01:50:35;100638.03;;;11.18;59.97
71149;BME280;59072;42.144;25.200;2023-05-03T01:53:00;100619.13;;;11.19;59.68
71149;BME280;59072;42.144;25.200;2023-05-03T01:55:26;100632.50;;;11.06;60.49
71149;BME280;59072;42.144;25.200;2023-05-03T01:57:51;100638.81;;;11.32;60.35
71149;BME280;59072;42.144;25.200;2023-05-03T02:00:17;100634.50;;;11.31;59.83
71149;BME280;59072;42.144;25.200;2023-05-03T02:02:42;100633.06;;;11.35;60.46
71149;BME280;59072;42.144;25.200;2023-05-03T02:05:08;100631.63;;;11.39;60.22
71149;BME280;59072;42.144;25.200;2023-05-03T02:07:34;100636.13;;;11.32;60.89
71149;BME280;59072;42.144;25.200;2023-05-03T02:10:00;100632.63;;;11.44;60.97
71149;BME280;59072;42.144;25.200;2023-05-03T02:12:25;100641.00;;;11.61;60.08
71149;BME280;59072;42.144;25.200;2023-05-03T02:14:51;100644.94;;;11.45;61.14
71149;BME280;59072;42.144;25.200;2023-05-03T02:17:16;100640.41;;;11.53;61.63
71149;BME280;59072;42.144;25.200;2023-05-03T02:19:43;100646.19;;;11.43;61.60
71149;BME280;59072;42.144;25.200;2023-05-03T02:22:08;100643.69;;;11.48;61.70
71149;BME280;59072;42.144;25.200;2023-05-03T02:24:34;100623.59;;;11.39;62.43
71149;BME280;59072;42.144;25.200;2023-05-03T02:27:01;100630.25;;;11.16;63.35
71149;BME280;59072;42.144;25.200;2023-05-03T02:29:29;100632.84;;;11.30;63.57
71149;BME280;59072;42.144;25.200;2023-05-03T02:31:55;100628.16;;;11.25;64.07
71149;BME280;59072;42.144;25.200;2023-05-03T02:34:20;100626.56;;;11.04;65.06
71149;BME280;59072;42.144;25.200;2023-05-03T02:36:46;100629.88;;;10.99;65.69
71149;BME280;59072;42.144;25.200;2023-05-03T02:39:11;100628.81;;;11.14;65.76
71149;BME280;59072;42.144;25.200;2023-05-03T02:41:37;100624.66;;;11.31;65.20
71149;BME280;59072;42.144;25.200;2023-05-03T02:44:02;100617.66;;;11.37;65.56
71149;BME280;59072;42.144;25.200;2023-05-03T02:46:28;100627.81;;;11.01;68.17
71149;BME280;59072;42.144;25.200;2023-05-03T02:48:53;100625.72;;;11.17;68.56
71149;BME280;59072;42.144;25.200;2023-05-03T02:51:18;100634.34;;;11.12;68.99
71149;BME280;59072;42.144;25.200;2023-05-03T02:53:44;100639.66;;;11.25;68.97
71149;BME280;59072;42.144;25.200;2023-05-03T02:56:10;100635.75;;;11.21;69.25
71149;BME280;59072;42.144;25.200;2023-05-03T02:58:35;100624.47;;;11.19;68.70
71149;BME280;59072;42.144;25.200;2023-05-03T03:01:01;100654.78;;;11.52;67.92
71149;BME280;59072;42.144;25.200;2023-05-03T03:03:26;100651.91;;;11.53;68.08
71149;BME280;59072;42.144;25.200;2023-05-03T03:05:51;100659.72;;;11.48;68.44
71149;BME280;59072;42.144;25.200;2023-05-03T03:08:17;100643.41;;;10.98;70.64
71149;BME280;59072;42.144;25.200;2023-05-03T03:10:42;100661.69;;;11.08;71.12
71149;BME280;59072;42.144;25.200;2023-05-03T03:13:08;100669.22;;;11.17;72.60
71149;BME280;59072;42.144;25.200;2023-05-03T03:15:33;100675.00;;;11.01;75.14
71149;BME280;59072;42.144;25.200;2023-05-03T03:17:59;100674.22;;;10.94;81.15
71149;BME280;59072;42.144;25.200;2023-05-03T03:20:25;100682.00;;;10.69;84.42
71149;BME280;59072;42.144;25.200;2023-05-03T03:22:50;100687.13;;;10.63;90.45
71149;BME280;59072;42.144;25.200;2023-05-03T03:25:15;100669.88;;;10.53;93.81
71149;BME280;59072;42.144;25.200;2023-05-03T03:27:41;100681.59;;;10.78;95.53
71149;BME280;59072;42.144;25.200;2023-05-03T03:30:07;100690.81;;;10.69;93.31
71149;BME280;59072;42.144;25.200;2023-05-03T03:32:33;100681.47;;;10.18;96.50
71149;BME280;59072;42.144;25.200;2023-05-03T03:34:59;100701.56;;;10.21;96.75
71149;BME280;59072;42.144;25.200;2023-05-03T03:37:25;100703.88;;;9.82;98.75
71149;BME280;59072;42.144;25.200;2023-05-03T03:39:51;100707.00;;;9.51;100.00
71149;BME280;59072;42.144;25.200;2023-05-03T03:42:16;100702.91;;;9.49;100.00
71149;BME280;59072;42.144;25.200;2023-05-03T03:44:41;100718.44;;;9.45;100.00
71149;BME280;59072;42.144;25.200;2023-05-03T03:47:07;100716.88;;;9.57;100.00
71149;BME280;59072;42.144;25.200;2023-05-03T03:49:32;100709.19;;;9.76;100.00
71149;BME280;59072;42.144;25.200;2023-05-03T03:51:58;100712.00;;;9.68;100.00
71149;BME280;59072;42.144;25.200;2023-05-03T03:54:23;100686.00;;;9.70;100.00
71149;BME280;59072;42.144;25.200;2023-05-03T03:56:49;100703.72;;;9.91;100.00
71149;BME280;59072;42.144;25.200;2023-05-03T03:59:17;100702.25;;;9.81;100.00
71149;BME280;59072;42.144;25.200;2023-05-03T04:01:42;100714.41;;;9.97;100.00
71149;BME280;59072;42.144;25.200;2023-05-03T04:04:08;100713.00;;;10.01;100.00
71149;BME280;59072;42.144;25.200;2023-05-03T04:06:34;100705.81;;;9.95;100.00
71149;BME280;59072;42.144;25.200;2023-05-03T04:08:59;100715.50;;;10.10;100.00
71149;BME280;59072;42.144;25.200;2023-05-03T04:11:25;100710.28;;;9.95;100.00
71149;BME280;59072;42.144;25.200;2023-05-03T04:13:50;100718.25;;;9.88;100.00
71149;BME280;59072;42.144;25.200;2023-05-03T04:16:15;100718.25;;;9.88;100.00
71149;BME280;59072;42.144;25.200;2023-05-03T04:18:41;100728.38;;;9.99;100.00
71149;BME280;59072;42.144;25.200;2023-05-03T04:21:07;100732.41;;;9.89;100.00
71149;BME280;59072;42.144;25.200;2023-05-03T04:23:32;100745.25;;;10.20;100.00
71149;BME280;59072;42.144;25.200;2023-05-03T04:25:58;100749.25;;;9.96;100.00
71149;BME280;59072;42.144;25.200;2023-05-03T04:28:23;100762.44;;;10.11;100.00
71149;BME280;59072;42.144;25.200;2023-05-03T04:30:51;100757.09;;;10.11;100.00
71149;BME280;59072;42.144;25.200;2023-05-03T04:33:18;100777.78;;;10.09;100.00
71149;BME280;59072;42.144;25.200;2023-05-03T04:35:44;100784.38;;;10.13;100.00
71149;BME280;59072;42.144;25.200;2023-05-03T04:38:13;100802.22;;;10.19;100.00
71149;BME280;59072;42.144;25.200;2023-05-03T04:40:39;100791.13;;;10.15;100.00
71149;BME280;59072;42.144;25.200;2023-05-03T04:43:05;100795.59;;;10.01;100.00
71149;BME280;59072;42.144;25.200;2023-05-03T04:45:30;100793.16;;;10.06;100.00
71149;BME280;59072;42.144;25.200;2023-05-03T04:47:56;100799.22;;;9.87;100.00
71149;BME280;59072;42.144;25.200;2023-05-03T04:50:21;100784.31;;;9.64;100.00
71149;BME280;59072;42.144;25.200;2023-05-03T04:52:46;100801.41;;;9.77;100.00
71149;BME280;59072;42.144;25.200;2023-05-03T04:55:12;100809.25;;;9.85;100.00
71149;BME280;59072;42.144;25.200;2023-05-03T04:57:38;100807.88;;;9.68;100.00
71149;BME280;59072;42.144;25.200;2023-05-03T05:00:04;100818.38;;;10.04;100.00
71149;BME280;59072;42.144;25.200;2023-05-03T05:02:35;100824.44;;;9.91;100.00
71149;BME280;59072;42.144;25.200;2023-05-03T05:05:00;100819.75;;;9.93;100.00
71149;BME280;59072;42.144;25.200;2023-05-03T05:07:26;100804.84;;;10.05;100.00
71149;BME280;59072;42.144;25.200;2023-05-03T05:09:51;100815.88;;;9.96;100.00
71149;BME280;59072;42.144;25.200;2023-05-03T05:12:16;100825.63;;;10.23;100.00
71149;BME280;59072;42.144;25.200;2023-05-03T05:14:42;100821.13;;;10.24;100.00
71149;BME280;59072;42.144;25.200;2023-05-03T05:17:07;100826.34;;;10.39;100.00
71149;BME280;59072;42.144;25.200;2023-05-03T05:19:33;100834.03;;;10.20;100.00
71149;BME280;59072;42.144;25.200;2023-05-03T05:21:58;100836.91;;;10.25;100.00
71149;BME280;59072;42.144;25.200;2023-05-03T05:24:23;100852.50;;;10.22;100.00
71149;BME280;59072;42.144;25.200;2023-05-03T05:26:49;100852.41;;;10.09;100.00
71149;BME280;59072;42.144;25.200;2023-05-03T05:29:15;100871.28;;;10.42;100.00
71149;BME280;59072;42.144;25.200;2023-05-03T05:31:40;100871.53;;;10.54;100.00
71149;BME280;59072;42.144;25.200;2023-05-03T05:34:05;100866.78;;;10.97;100.00
71149;BME280;59072;42.144;25.200;2023-05-03T05:36:31;100862.00;;;10.73;100.00
71149;BME280;59072;42.144;25.200;2023-05-03T05:38:57;100860.06;;;10.60;100.00
71149;BME280;59072;42.144;25.200;2023-05-03T05:41:22;100859.72;;;10.76;100.00
71149;BME280;59072;42.144;25.200;2023-05-03T05:43:47;100844.13;;;10.80;100.00
71149;BME280;59072;42.144;25.200;2023-05-03T05:46:13;100836.38;;;10.85;100.00
71149;BME280;59072;42.144;25.200;2023-05-03T05:48:40;100844.31;;;10.78;100.00
71149;BME280;59072;42.144;25.200;2023-05-03T05:51:05;100849.00;;;10.63;100.00
71149;BME280;59072;42.144;25.200;2023-05-03T05:53:31;100839.94;;;10.51;100.00
71149;BME280;59072;42.144;25.200;2023-05-03T05:55:56;100846.53;;;10.55;100.00
71149;BME280;59072;42.144;25.200;2023-05-03T05:58:22;100822.88;;;10.45;100.00
71149;BME280;59072;42.144;25.200;2023-05-03T06:00:47;100832.59;;;10.59;100.00
71149;BME280;59072;42.144;25.200;2023-05-03T06:03:13;100834.09;;;10.89;100.00
71149;BME280;59072;42.144;25.200;2023-05-03T06:05:39;100811.75;;;10.90;100.00
71149;BME280;59072;42.144;25.200;2023-05-03T06:08:05;100819.97;;;11.21;100.00
71149;BME280;59072;42.144;25.200;2023-05-03T06:10:31;100815.03;;;10.92;100.00
71149;BME280;59072;42.144;25.200;2023-05-03T06:12:56;100778.69;;;10.91;100.00
71149;BME280;59072;42.144;25.200;2023-05-03T06:15:22;100781.34;;;10.84;100.00
71149;BME280;59072;42.144;25.200;2023-05-03T06:17:47;100787.50;;;10.78;100.00
71149;BME280;59072;42.144;25.200;2023-05-03T06:20:12;100796.09;;;10.73;100.00
71149;BME280;59072;42.144;25.200;2023-05-03T06:22:38;100799.41;;;10.89;100.00
71149;BME280;59072;42.144;25.200;2023-05-03T06:25:04;100804.34;;;11.05;100.00
71149;BME280;59072;42.144;25.200;2023-05-03T06:27:29;100799.44;;;11.29;100.00
71149;BME280;59072;42.144;25.200;2023-05-03T06:29:55;100795.31;;;11.59;100.00
71149;BME280;59072;42.144;25.200;2023-05-03T06:32:20;100784.75;;;12.04;100.00
71149;BME280;59072;42.144;25.200;2023-05-03T06:34:48;100792.47;;;12.33;100.00
71149;BME280;59072;42.144;25.200;2023-05-03T06:37:14;100793.78;;;12.17;100.00
71149;BME280;59072;42.144;25.200;2023-05-03T06:39:39;100785.06;;;12.73;100.00
71149;BME280;59072;42.144;25.200;2023-05-03T06:42:05;100783.25;;;12.67;100.00
71149;BME280;59072;42.144;25.200;2023-05-03T06:44:32;100780.94;;;12.77;100.00
71149;BME280;59072;42.144;25.200;2023-05-03T06:46:57;100778.41;;;13.14;100.00
71149;BME280;59072;42.144;25.200;2023-05-03T06:49:23;100773.19;;;13.19;100.00
71149;BME280;59072;42.144;25.200;2023-05-03T06:51:48;100775.44;;;13.22;100.00
71149;BME280;59072;42.144;25.200;2023-05-03T06:54:14;100780.13;;;13.52;100.00
71149;BME280;59072;42.144;25.200;2023-05-03T06:56:39;100784.09;;;13.24;100.00
71149;BME280;59072;42.144;25.200;2023-05-03T06:59:06;100785.47;;;13.34;100.00
71149;BME280;59072;42.144;25.200;2023-05-03T07:01:33;100795.28;;;13.40;100.00
71149;BME280;59072;42.144;25.200;2023-05-03T07:03:58;100788.13;;;13.09;100.00
71149;BME280;59072;42.144;25.200;2023-05-03T07:06:24;100797.28;;;13.19;100.00
71149;BME280;59072;42.144;25.200;2023-05-03T07:08:50;100804.19;;;13.40;100.00
71149;BME280;59072;42.144;25.200;2023-05-03T07:11:17;100804.03;;;13.29;100.00
71149;BME280;59072;42.144;25.200;2023-05-03T07:13:42;100792.91;;;13.00;100.00
71149;BME280;59072;42.144;25.200;2023-05-03T07:16:08;100780.03;;;13.15;100.00
71149;BME280;59072;42.144;25.200;2023-05-03T07:18:33;100774.03;;;13.45;100.00
71149;BME280;59072;42.144;25.200;2023-05-03T07:20:59;100774.19;;;13.50;100.00
71149;BME280;59072;42.144;25.200;2023-05-03T07:23:30;100755.09;;;13.65;100.00
71149;BME280;59072;42.144;25.200;2023-05-03T07:25:55;100764.97;;;13.64;100.00
71149;BME280;59072;42.144;25.200;2023-05-03T07:28:22;100782.19;;;14.12;100.00
71149;BME280;59072;42.144;25.200;2023-05-03T07:30:47;100770.03;;;13.91;100.00
71149;BME280;59072;42.144;25.200;2023-05-03T07:33:12;100787.47;;;14.19;100.00
71149;BME280;59072;42.144;25.200;2023-05-03T07:35:38;100781.66;;;14.59;100.00
71149;BME280;59072;42.144;25.200;2023-05-03T07:38:03;100765.31;;;14.72;100.00
71149;BME280;59072;42.144;25.200;2023-05-03T07:40:29;100769.34;;;14.81;100.00
71149;BME280;59072;42.144;25.200;2023-05-03T07:42:57;100767.28;;;15.07;100.00
71149;BME280;59072;42.144;25.200;2023-05-03T07:45:22;100770.19;;;15.05;100.00
71149;BME280;59072;42.144;25.200;2023-05-03T07:47:48;100771.34;;;15.10;100.00
71149;BME280;59072;42.144;25.200;2023-05-03T07:50:13;100761.81;;;15.25;100.00
71149;BME280;59072;42.144;25.200;2023-05-03T07:52:38;100756.06;;;15.10;100.00
71149;BME280;59072;42.144;25.200;2023-05-03T07:55:05;100752.47;;;15.16;96.32
71149;BME280;59072;42.144;25.200;2023-05-03T07:57:31;100746.47;;;15.85;97.76
71149;BME280;59072;42.144;25.200;2023-05-03T07:59:57;100714.44;;;15.72;96.53
71149;BME280;59072;42.144;25.200;2023-05-03T08:02:22;100732.47;;;16.12;92.58
71149;BME280;59072;42.144;25.200;2023-05-03T08:04:48;100733.94;;;16.31;89.60
71149;BME280;59072;42.144;25.200;2023-05-03T08:07:13;100736.63;;;16.02;88.58
71149;BME280;59072;42.144;25.200;2023-05-03T08:09:40;100742.59;;;16.33;89.49
71149;BME280;59072;42.144;25.200;2023-05-03T08:12:05;100754.97;;;16.63;79.53
71149;BME280;59072;42.144;25.200;2023-05-03T08:14:31;100764.88;;;16.74;82.21
71149;BME280;59072;42.144;25.200;2023-05-03T08:16:58;100759.16;;;16.71;83.09
71149;BME280;59072;42.144;25.200;2023-05-03T08:19:23;100756.34;;;17.11;84.36
71149;BME280;59072;42.144;25.200;2023-05-03T08:21:49;100747.13;;;17.07;83.34
71149;BME280;59072;42.144;25.200;2023-05-03T08:24:18;100758.81;;;17.13;84.55
71149;BME280;59072;42.144;25.200;2023-05-03T08:26:44;100745.94;;;17.54;87.24
71149;BME280;59072;42.144;25.200;2023-05-03T08:29:10;100745.41;;;17.74;75.73
71149;BME280;59072;42.144;25.200;2023-05-03T08:31:36;100753.66;;;17.28;75.11
71149;BME280;59072;42.144;25.200;2023-05-03T08:34:02;100743.84;;;17.39;71.08
71149;BME280;59072;42.144;25.200;2023-05-03T08:36:28;100757.19;;;17.84;74.13
71149;BME280;59072;42.144;25.200;2023-05-03T08:38:54;100750.13;;;17.83;71.21
71149;BME280;59072;42.144;25.200;2023-05-03T08:41:30;100747.63;;;17.99;68.46
71149;BME280;59072;42.144;25.200;2023-05-03T08:43:56;100753.56;;;17.40;74.60
71149;BME280;59072;42.144;25.200;2023-05-03T08:46:23;100750.88;;;17.40;74.16
71149;BME280;59072;42.144;25.200;2023-05-03T08:48:52;100744.41;;;17.80;78.52
71149;BME280;59072;42.144;25.200;2023-05-03T08:51:18;100727.75;;;18.05;71.30
71149;BME280;59072;42.144;25.200;2023-05-03T08:53:45;100738.13;;;18.18;75.76
71149;BME280;59072;42.144;25.200;2023-05-03T08:56:15;100732.66;;;17.69;70.40
71149;BME280;59072;42.144;25.200;2023-05-03T08:58:44;100733.09;;;17.05;74.80
71149;BME280;59072;42.144;25.200;2023-05-03T09:01:09;100720.75;;;16.46;75.20
71149;BME280;59072;42.144;25.200;2023-05-03T09:03:35;100719.38;;;17.06;68.22
71149;BME280;59072;42.144;25.200;2023-05-03T09:06:01;100717.97;;;17.60;65.73
71149;BME280;59072;42.144;25.200;2023-05-03T09:08:28;100723.00;;;17.73;73.47
71149;BME280;59072;42.144;25.200;2023-05-03T09:10:54;100723.81;;;18.18;69.16
71149;BME280;59072;42.144;25.200;2023-05-03T09:13:19;100713.72;;;17.64;65.90
71149;BME280;59072;42.144;25.200;2023-05-03T09:15:56;100722.97;;;17.90;70.25
71149;BME280;59072;42.144;25.200;2023-05-03T09:18:21;100710.50;;;18.33;73.06
71149;BME280;59072;42.144;25.200;2023-05-03T09:20:48;100713.06;;;18.77;66.68
71149;BME280;59072;42.144;25.200;2023-05-03T09:25:53;100711.09;;;18.13;66.97
71149;BME280;59072;42.144;25.200;2023-05-03T09:28:19;100694.31;;;17.84;65.88
71149;BME280;59072;42.144;25.200;2023-05-03T09:30:46;100697.38;;;18.20;68.00
71149;BME280;59072;42.144;25.200;2023-05-03T09:33:12;100685.53;;;17.33;69.17
71149;BME280;59072;42.144;25.200;2023-05-03T09:35:57;100679.09;;;17.56;66.44
71149;BME280;59072;42.144;25.200;2023-05-03T09:38:41;100672.41;;;17.19;64.89
71149;BME280;59072;42.144;25.200;2023-05-03T09:41:07;100691.56;;;17.62;65.30
71149;BME280;59072;42.144;25.200;2023-05-03T09:43:33;100690.06;;;17.49;62.25
71149;BME280;59072;42.144;25.200;2023-05-03T09:46:10;100711.00;;;17.42;66.21
71149;BME280;59072;42.144;25.200;2023-05-03T09:48:37;100700.84;;;17.49;64.23
71149;BME280;59072;42.144;25.200;2023-05-03T09:51:03;100705.88;;;17.62;64.62
71149;BME280;59072;42.144;25.200;2023-05-03T09:53:33;100702.97;;;17.08;64.99
71149;BME280;59072;42.144;25.200;2023-05-03T09:56:01;100713.66;;;17.03;66.21
71149;BME280;59072;42.144;25.200;2023-05-03T09:58:27;100690.22;;;16.86;66.30
71149;BME280;59072;42.144;25.200;2023-05-03T10:00:55;100709.09;;;17.20;66.07
71149;BME280;59072;42.144;25.200;2023-05-03T10:03:27;100681.31;;;17.03;64.31
71149;BME280;59072;42.144;25.200;2023-05-03T10:05:54;100700.88;;;17.32;66.03
71149;BME280;59072;42.144;25.200;2023-05-03T10:08:39;100702.69;;;17.26;64.57
71149;BME280;59072;42.144;25.200;2023-05-03T10:11:07;100684.16;;;17.13;63.45
71149;BME280;59072;42.144;25.200;2023-05-03T10:13:34;100701.09;;;17.09;64.95
71149;BME280;59072;42.144;25.200;2023-05-03T10:16:05;100674.31;;;16.85;66.09
71149;BME280;59072;42.144;25.200;2023-05-03T10:18:38;100682.94;;;17.04;66.64
71149;BME280;59072;42.144;25.200;2023-05-03T10:21:15;100675.22;;;16.91;62.34
71149;BME280;59072;42.144;25.200;2023-05-03T10:24:11;100710.78;;;17.10;66.42
71149;BME280;59072;42.144;25.200;2023-05-03T10:26:39;100689.09;;;16.82;64.82
71149;BME280;59072;42.144;25.200;2023-05-03T10:29:05;100714.38;;;17.15;67.68
71149;BME280;59072;42.144;25.200;2023-05-03T10:31:51;100734.47;;;17.24;65.98
71149;BME280;59072;42.144;25.200;2023-05-03T10:34:21;100732.84;;;17.62;63.37
71149;BME280;59072;42.144;25.200;2023-05-03T10:36:48;100730.84;;;17.36;63.17
71149;BME280;59072;42.144;25.200;2023-05-03T10:39:20;100727.34;;;17.35;64.47
71149;BME280;59072;42.144;25.200;2023-05-03T10:41:58;100723.28;;;17.16;64.24
71149;BME280;59072;42.144;25.200;2023-05-03T10:44:37;100696.56;;;17.31;64.91
71149;BME280;59072;42.144;25.200;2023-05-03T10:47:14;100711.78;;;17.42;64.42
71149;BME280;59072;42.144;25.200;2023-05-03T10:49:40;100686.88;;;17.13;63.98
71149;BME280;59072;42.144;25.200;2023-05-03T10:55:10;100714.47;;;17.20;61.96
71149;BME280;59072;42.144;25.200;2023-05-03T10:57:38;100705.91;;;17.45;65.04
71149;BME280;59072;42.144;25.200;2023-05-03T11:00:10;100702.16;;;16.91;63.44
71149;BME280;59072;42.144;25.200;2023-05-03T11:02:41;100703.00;;;16.79;61.44
71149;BME280;59072;42.144;25.200;2023-05-03T11:05:12;100704.72;;;16.68;65.28
71149;BME280;59072;42.144;25.200;2023-05-03T11:07:39;100699.34;;;16.68;63.98
71149;BME280;59072;42.144;25.200;2023-05-03T11:10:16;100705.13;;;16.77;64.59
71149;BME280;59072;42.144;25.200;2023-05-03T11:12:42;100701.78;;;16.53;64.02
71149;BME280;59072;42.144;25.200;2023-05-03T11:15:08;100703.50;;;16.76;64.22
71149;BME280;59072;42.144;25.200;2023-05-03T11:17:36;100694.31;;;16.89;65.80
71149;BME280;59072;42.144;25.200;2023-05-03T11:20:05;100674.28;;;16.68;67.58
71149;BME280;59072;42.144;25.200;2023-05-03T11:22:33;100679.75;;;16.73;73.82
71149;BME280;59072;42.144;25.200;2023-05-03T11:24:59;100667.91;;;16.57;78.20
71149;BME280;59072;42.144;25.200;2023-05-03T11:27:24;100641.16;;;16.67;80.07
71149;BME280;59072;42.144;25.200;2023-05-03T11:29:50;100625.47;;;16.47;78.71
71149;BME280;59072;42.144;25.200;2023-05-03T11:32:17;100614.63;;;16.59;78.55
71149;BME280;59072;42.144;25.200;2023-05-03T11:34:44;100608.81;;;16.51;81.08
71149;BME280;59072;42.144;25.200;2023-05-03T11:37:10;100609.50;;;16.58;79.57
71149;BME280;59072;42.144;25.200;2023-05-03T11:39:36;100600.78;;;16.84;79.58
71149;BME280;59072;42.144;25.200;2023-05-03T11:42:02;100603.84;;;16.93;80.90
71149;BME280;59072;42.144;25.200;2023-05-03T11:44:28;100595.13;;;16.86;73.70
71149;BME280;59072;42.144;25.200;2023-05-03T11:46:54;100611.19;;;16.98;74.08
71149;BME280;59072;42.144;25.200;2023-05-03T11:49:20;100614.94;;;16.97;70.06
71149;BME280;59072;42.144;25.200;2023-05-03T11:51:46;100608.66;;;17.08;74.76
71149;BME280;59072;42.144;25.200;2023-05-03T11:54:13;100606.34;;;17.17;72.32
71149;BME280;59072;42.144;25.200;2023-05-03T11:56:38;100608.66;;;17.08;71.71
71149;BME280;59072;42.144;25.200;2023-05-03T11:59:04;100599.34;;;16.99;68.78
71149;BME280;59072;42.144;25.200;2023-05-03T12:01:29;100602.94;;;16.71;69.10
71149;BME280;59072;42.144;25.200;2023-05-03T12:03:57;100590.38;;;16.76;69.66
71149;BME280;59072;42.144;25.200;2023-05-03T12:06:23;100613.88;;;16.98;68.33
71149;BME280;59072;42.144;25.200;2023-05-03T12:08:49;100620.56;;;16.95;69.46
71149;BME280;59072;42.144;25.200;2023-05-03T12:11:15;100630.22;;;16.91;72.37
71149;BME280;59072;42.144;25.200;2023-05-03T12:13:41;100635.38;;;16.93;70.17
71149;BME280;59072;42.144;25.200;2023-05-03T12:16:07;100627.44;;;16.69;72.36
71149;BME280;59072;42.144;25.200;2023-05-03T12:21:15;100605.09;;;16.52;71.16
71149;BME280;59072;42.144;25.200;2023-05-03T12:23:41;100593.00;;;16.71;72.22
71149;BME280;59072;42.144;25.200;2023-05-03T12:26:07;100588.53;;;16.60;74.77
71149;BME280;59072;42.144;25.200;2023-05-03T12:28:33;100594.31;;;16.52;77.24
71149;BME280;59072;42.144;25.200;2023-05-03T12:30:59;100589.50;;;16.54;79.73
71149;BME280;59072;42.144;25.200;2023-05-03T12:33:24;100589.81;;;16.40;80.37
71149;BME280;59072;42.144;25.200;2023-05-03T12:35:50;100574.91;;;16.50;79.23
71149;BME280;59072;42.144;25.200;2023-05-03T12:38:15;100570.31;;;16.67;81.27
71149;BME280;59072;42.144;25.200;2023-05-03T12:40:42;100568.69;;;16.83;77.69
71149;BME280;59072;42.144;25.200;2023-05-03T12:43:07;100571.84;;;16.97;74.33
71149;BME280;59072;42.144;25.200;2023-05-03T12:45:32;100575.44;;;17.24;77.31
71149;BME280;59072;42.144;25.200;2023-05-03T12:47:58;100563.66;;;17.31;73.27
71149;BME280;59072;42.144;25.200;2023-05-03T12:50:23;100572.22;;;17.05;73.17
71149;BME280;59072;42.144;25.200;2023-05-03T12:52:49;100568.50;;;16.73;74.39